createdAt,value
2017-09-20T00:01:18.702Z,16.50
2017-09-20T00:03:51.569Z,16.40
2017-09-20T00:06:25.296Z,14.03
2017-09-20T00:08:51.906Z,15.93
2017-09-20T00:11:30.321Z,16.10
2017-09-20T00:14:03.262Z,14.47
2017-09-20T00:16:29.519Z,13.00
2017-09-20T00:18:55.761Z,15.93
2017-09-20T00:21:34.143Z,14.43
2017-09-20T00:24:06.745Z,16.20
2017-09-20T00:26:32.974Z,13.93
2017-09-20T00:29:11.455Z,14.10
2017-09-20T00:31:37.699Z,14.27
2017-09-20T00:34:03.930Z,13.63
2017-09-20T00:36:30.206Z,20.90
2017-09-20T00:38:56.434Z,22.17
2017-09-20T00:41:22.690Z,14.93
2017-09-20T00:43:48.966Z,16.33
2017-09-20T00:46:15.202Z,23.27
2017-09-20T00:48:41.450Z,16.60
2017-09-20T00:51:07.743Z,16.60
2017-09-20T00:53:33.974Z,18.17
2017-09-20T00:56:00.202Z,15.03
2017-09-20T00:58:26.466Z,11.70
2017-09-20T01:00:52.719Z,15.80
2017-09-20T01:03:19.698Z,11.80
2017-09-20T01:05:46.018Z,16.67
2017-09-20T01:08:12.990Z,14.50
2017-09-20T01:10:39.210Z,13.53
2017-09-20T01:13:05.494Z,9.03
2017-09-20T01:15:31.869Z,8.90
2017-09-20T01:17:58.110Z,12.93
2017-09-20T01:20:36.670Z,10.73
2017-09-20T01:23:15.170Z,10.43
2017-09-20T01:25:41.685Z,10.23
2017-09-20T01:28:07.915Z,9.60
2017-09-20T01:30:34.166Z,11.50
2017-09-20T01:33:00.438Z,13.23
2017-09-20T01:35:26.686Z,11.53
2017-09-20T01:37:53.658Z,9.30
2017-09-20T01:40:19.929Z,9.73
2017-09-20T01:42:46.238Z,7.87
2017-09-20T01:45:12.458Z,13.93
2017-09-20T01:47:38.734Z,8.03
2017-09-20T01:50:04.986Z,10.87
2017-09-20T01:52:32.043Z,15.30
2017-09-20T01:54:59.046Z,7.37
2017-09-20T01:57:25.338Z,8.93
2017-09-20T01:59:51.570Z,6.70
2017-09-20T02:02:18.106Z,12.60
2017-09-20T02:04:44.333Z,9.93
2017-09-20T02:07:11.300Z,17.70
2017-09-20T02:09:37.647Z,16.37
2017-09-20T02:12:03.919Z,10.90
2017-09-20T02:14:30.899Z,12.10
2017-09-20T02:16:57.156Z,8.43
2017-09-20T02:19:23.387Z,10.80
2017-09-20T02:21:49.613Z,7.03
2017-09-20T02:24:15.871Z,15.30
2017-09-20T02:26:42.386Z,9.50
2017-09-20T02:29:08.611Z,9.23
2017-09-20T02:31:34.851Z,6.97
2017-09-20T02:34:01.107Z,6.57
2017-09-20T02:36:27.398Z,10.60
2017-09-20T02:38:53.688Z,13.33
2017-09-20T02:41:19.921Z,11.50
2017-09-20T02:43:46.162Z,10.30
2017-09-20T02:46:13.205Z,10.90
2017-09-20T02:48:39.442Z,9.93
2017-09-20T02:51:06.459Z,9.23
2017-09-20T02:53:32.719Z,10.00
2017-09-20T02:55:59.717Z,12.50
2017-09-20T02:58:25.967Z,10.37
2017-09-20T03:00:52.229Z,9.03
2017-09-20T03:03:18.494Z,13.50
2017-09-20T03:05:44.739Z,9.40
2017-09-20T03:08:11.002Z,15.57
2017-09-20T03:10:38.018Z,11.43
2017-09-20T03:13:04.254Z,15.00
2017-09-20T03:15:30.519Z,9.07
2017-09-20T03:17:56.765Z,9.73
2017-09-20T03:20:23.010Z,15.50
2017-09-20T03:22:50.014Z,9.83
2017-09-20T03:25:16.238Z,15.30
2017-09-20T03:27:46.030Z,12.93
2017-09-20T03:30:12.279Z,12.07
2017-09-20T03:32:38.514Z,8.63
2017-09-20T03:35:04.758Z,16.73
2017-09-20T03:37:31.052Z,8.70
2017-09-20T03:39:57.354Z,14.43
2017-09-20T03:42:23.589Z,21.70
2017-09-20T03:44:50.602Z,11.50
2017-09-20T03:47:16.846Z,10.33
2017-09-20T03:49:43.073Z,13.37
2017-09-20T03:52:10.080Z,12.50
2017-09-20T03:54:36.313Z,12.77
2017-09-20T03:57:02.538Z,6.63
2017-09-20T03:59:28.872Z,8.57
2017-09-20T04:01:55.105Z,9.33
2017-09-20T04:04:21.346Z,9.87
2017-09-20T04:06:47.616Z,7.53
2017-09-20T04:09:13.942Z,13.17
2017-09-20T04:11:40.641Z,8.43
2017-09-20T04:14:07.216Z,10.93
2017-09-20T04:16:33.607Z,25.97
2017-09-20T04:18:59.908Z,5.97
2017-09-20T04:21:26.310Z,7.20
2017-09-20T04:23:52.538Z,9.53
2017-09-20T04:26:19.175Z,6.80
2017-09-20T04:28:45.699Z,19.23
2017-09-20T04:31:11.958Z,10.37
2017-09-20T04:33:38.197Z,8.60
2017-09-20T04:36:04.580Z,5.70
2017-09-20T04:38:30.808Z,6.20
2017-09-20T04:40:58.064Z,9.33
2017-09-20T04:43:25.175Z,9.63
2017-09-20T04:45:51.419Z,10.07
2017-09-20T04:48:17.915Z,12.10
2017-09-20T04:50:44.322Z,7.03
2017-09-20T04:53:10.586Z,7.40
2017-09-20T04:55:37.280Z,4.30
2017-09-20T04:58:03.720Z,6.80
2017-09-20T05:00:30.259Z,10.00
2017-09-20T05:02:56.811Z,8.20
2017-09-20T05:05:24.199Z,5.13
2017-09-20T05:07:50.517Z,9.30
2017-09-20T05:10:16.771Z,12.27
2017-09-20T05:12:43.380Z,14.23
2017-09-20T05:15:09.811Z,7.53
2017-09-20T05:17:36.121Z,12.93
2017-09-20T05:20:02.759Z,6.77
2017-09-20T05:22:29.730Z,6.83
2017-09-20T05:24:55.960Z,7.30
2017-09-20T05:27:22.778Z,7.23
2017-09-20T05:29:50.394Z,9.60
2017-09-20T05:32:17.103Z,12.87
2017-09-20T05:34:44.219Z,11.00
2017-09-20T05:37:10.463Z,7.93
2017-09-20T05:39:36.813Z,13.60
2017-09-20T05:42:03.670Z,5.80
2017-09-20T05:44:30.114Z,10.40
2017-09-20T05:46:56.951Z,14.70
2017-09-20T05:49:23.459Z,9.83
2017-09-20T05:51:50.435Z,15.67
2017-09-20T05:54:17.151Z,6.23
2017-09-20T05:56:43.415Z,7.53
2017-09-20T05:59:10.170Z,8.00
2017-09-20T06:01:36.667Z,9.80
2017-09-20T06:04:03.428Z,7.23
2017-09-20T06:06:30.490Z,8.03
2017-09-20T06:08:56.715Z,10.73
2017-09-20T06:11:23.434Z,8.17
2017-09-20T06:13:50.402Z,5.83
2017-09-20T06:16:16.660Z,9.17
2017-09-20T06:18:43.142Z,11.57
2017-09-20T06:21:10.034Z,10.67
2017-09-20T06:23:36.281Z,6.80
2017-09-20T06:26:02.534Z,7.50
2017-09-20T06:28:28.788Z,12.07
2017-09-20T06:30:55.399Z,8.87
2017-09-20T06:33:21.646Z,4.37
2017-09-20T06:35:48.910Z,10.00
2017-09-20T06:38:15.286Z,8.20
2017-09-20T06:40:41.838Z,10.63
2017-09-20T06:43:08.306Z,5.50
2017-09-20T06:45:37.621Z,14.37
2017-09-20T06:48:04.190Z,9.57
2017-09-20T06:50:31.288Z,8.07
2017-09-20T06:52:58.035Z,8.00
2017-09-20T06:55:24.350Z,6.83
2017-09-20T06:57:50.606Z,6.80
2017-09-20T07:00:16.874Z,8.37
2017-09-20T07:02:43.147Z,9.40
2017-09-20T07:05:09.396Z,8.63
2017-09-20T07:07:35.646Z,10.50
2017-09-20T07:10:02.684Z,6.27
2017-09-20T07:12:29.742Z,12.13
2017-09-20T07:14:55.974Z,7.97
2017-09-20T07:17:22.228Z,5.37
2017-09-20T07:19:48.468Z,8.57
2017-09-20T07:22:14.706Z,8.20
2017-09-20T07:24:40.986Z,7.60
2017-09-20T07:27:07.218Z,6.80
2017-09-20T07:29:33.506Z,6.93
2017-09-20T07:32:01.051Z,11.40
2017-09-20T07:34:27.324Z,7.17
2017-09-20T07:36:53.574Z,5.50
2017-09-20T07:39:19.822Z,7.17
2017-09-20T07:41:46.819Z,5.17
2017-09-20T07:44:13.125Z,6.60
2017-09-20T07:46:39.405Z,14.40
2017-09-20T07:49:05.647Z,5.53
2017-09-20T07:51:31.970Z,9.30
2017-09-20T07:53:59.111Z,4.67
2017-09-20T07:56:25.556Z,5.93
2017-09-20T07:58:52.007Z,4.73
2017-09-20T08:01:18.323Z,4.90
2017-09-20T08:03:44.566Z,10.60
2017-09-20T08:06:10.802Z,13.30
2017-09-20T08:08:37.086Z,11.07
2017-09-20T08:11:03.322Z,8.87
2017-09-20T08:13:29.552Z,8.13
2017-09-20T08:15:55.807Z,8.93
2017-09-20T08:18:22.063Z,14.60
2017-09-20T08:20:48.326Z,6.43
2017-09-20T08:23:14.595Z,3.83
2017-09-20T08:25:40.914Z,6.30
2017-09-20T08:28:07.134Z,6.43
2017-09-20T08:30:33.378Z,10.77
2017-09-20T08:33:00.613Z,5.97
2017-09-20T08:35:26.871Z,5.50
2017-09-20T08:37:53.314Z,8.80
2017-09-20T08:40:19.563Z,4.73
2017-09-20T08:42:45.846Z,5.27
2017-09-20T08:45:12.143Z,4.90
2017-09-20T08:47:39.123Z,3.90
2017-09-20T08:50:05.350Z,2.50
2017-09-20T08:52:32.422Z,4.50
2017-09-20T08:54:58.679Z,5.30
2017-09-20T08:57:24.926Z,4.73
2017-09-20T08:59:51.256Z,5.23
2017-09-20T09:02:18.244Z,2.37
2017-09-20T09:04:44.465Z,7.07
2017-09-20T09:07:11.465Z,2.63
2017-09-20T09:09:37.706Z,2.43
2017-09-20T09:12:03.949Z,4.20
2017-09-20T09:14:30.230Z,5.43
2017-09-20T09:16:56.465Z,5.20
2017-09-20T09:19:22.710Z,6.73
2017-09-20T09:21:48.989Z,5.20
2017-09-20T09:24:15.302Z,6.43
2017-09-20T09:26:41.570Z,15.93
2017-09-20T09:29:07.880Z,6.07
2017-09-20T09:31:34.102Z,4.00
2017-09-20T09:34:00.596Z,5.47
2017-09-20T09:36:26.867Z,5.67
2017-09-20T09:38:53.098Z,5.33
2017-09-20T09:41:19.358Z,5.80
2017-09-20T09:43:46.377Z,6.33
2017-09-20T09:46:12.626Z,6.93
2017-09-20T09:48:38.870Z,3.27
2017-09-20T09:51:05.894Z,7.93
2017-09-20T09:53:32.214Z,10.23
2017-09-20T09:55:58.464Z,6.80
2017-09-20T09:58:25.506Z,3.33
2017-09-20T10:00:51.804Z,4.30
2017-09-20T10:03:18.038Z,12.50
2017-09-20T10:05:44.322Z,8.97
2017-09-20T10:08:10.574Z,5.50
2017-09-20T10:10:36.836Z,9.13
2017-09-20T10:13:03.111Z,2.90
2017-09-20T10:15:30.113Z,8.53
2017-09-20T10:17:56.350Z,2.60
2017-09-20T10:20:22.648Z,6.30
2017-09-20T10:22:48.883Z,7.00
2017-09-20T10:25:15.122Z,3.43
2017-09-20T10:27:41.394Z,6.40
2017-09-20T10:30:07.691Z,7.10
2017-09-20T10:32:33.943Z,4.73
2017-09-20T10:35:00.745Z,12.37
2017-09-20T10:37:27.716Z,9.13
2017-09-20T10:39:54.014Z,4.33
2017-09-20T10:42:21.002Z,6.80
2017-09-20T10:44:47.251Z,10.00
2017-09-20T10:47:13.523Z,5.60
2017-09-20T10:49:47.574Z,4.47
2017-09-20T10:52:13.875Z,8.50
2017-09-20T10:54:40.846Z,4.13
2017-09-20T10:57:14.337Z,10.80
2017-09-20T10:59:41.350Z,6.30
2017-09-20T11:02:08.342Z,5.23
2017-09-20T11:04:34.625Z,2.90
2017-09-20T11:07:00.863Z,13.33
2017-09-20T11:09:30.631Z,2.40
2017-09-20T11:11:56.933Z,7.03
2017-09-20T11:14:24.478Z,7.47
2017-09-20T11:16:50.745Z,4.53
2017-09-20T11:19:24.463Z,3.80
2017-09-20T11:21:50.698Z,8.00
2017-09-20T11:24:35.867Z,2.27
2017-09-20T11:27:04.399Z,2.97
2017-09-20T11:29:30.710Z,7.60
2017-09-20T11:31:56.983Z,8.10
2017-09-20T11:34:23.234Z,4.40
2017-09-20T11:36:49.743Z,7.60
2017-09-20T11:39:16.030Z,13.77
2017-09-20T11:41:42.270Z,4.57
2017-09-20T11:44:08.558Z,7.57
2017-09-20T11:46:36.306Z,4.37
2017-09-20T11:49:03.302Z,9.47
2017-09-20T11:51:33.127Z,7.87
2017-09-20T11:53:59.381Z,3.50
2017-09-20T11:56:27.622Z,11.37
2017-09-20T11:58:55.437Z,6.87
2017-09-20T12:01:22.798Z,4.67
2017-09-20T12:03:51.264Z,3.17
2017-09-20T12:06:18.283Z,10.00
2017-09-20T12:08:48.443Z,4.27
2017-09-20T12:11:14.674Z,2.60
2017-09-20T12:13:42.354Z,5.07
2017-09-20T12:16:09.385Z,7.57
2017-09-20T12:18:37.762Z,4.80
2017-09-20T12:21:04.018Z,5.17
2017-09-20T12:23:30.290Z,6.57
2017-09-20T12:25:57.626Z,7.80
2017-09-20T12:28:24.628Z,3.67
2017-09-20T12:33:27.518Z,5.20
2017-09-20T12:35:55.210Z,5.73
2017-09-20T12:38:21.994Z,5.33
2017-09-20T12:44:08.867Z,3.43
2017-09-20T12:46:36.990Z,3.40
2017-09-20T12:49:03.254Z,2.40
2017-09-20T12:51:29.538Z,30.20
2017-09-20T12:53:56.537Z,13.70
2017-09-20T12:56:22.783Z,8.93
2017-09-20T12:58:49.079Z,5.67
2017-09-20T13:01:16.039Z,5.23
2017-09-20T13:03:43.114Z,8.60
2017-09-20T13:06:09.453Z,3.13
2017-09-20T13:08:35.720Z,8.10
2017-09-20T13:11:02.807Z,5.60
2017-09-20T13:13:29.057Z,8.50
2017-09-20T13:15:55.299Z,4.77
2017-09-20T13:18:21.554Z,5.40
2017-09-20T13:20:50.818Z,9.63
2017-09-20T13:23:17.090Z,6.60
2017-09-20T13:25:43.343Z,4.00
2017-09-20T13:28:10.352Z,3.20
2017-09-20T13:30:36.605Z,10.60
2017-09-20T13:33:03.602Z,3.03
2017-09-20T13:35:29.882Z,4.23
2017-09-20T13:37:56.124Z,7.90
2017-09-20T13:40:22.630Z,15.70
2017-09-20T13:42:50.440Z,4.53
2017-09-20T13:45:18.699Z,5.53
2017-09-20T13:47:44.954Z,6.73
2017-09-20T13:50:11.259Z,3.30
2017-09-20T13:52:37.502Z,8.37
2017-09-20T13:55:04.487Z,4.33
2017-09-20T13:57:30.728Z,20.57
2017-09-20T13:59:56.954Z,5.87
2017-09-20T14:02:23.285Z,8.83
2017-09-20T14:04:49.577Z,7.40
2017-09-20T14:07:16.566Z,6.43
2017-09-20T14:09:42.806Z,4.53
2017-09-20T14:12:09.115Z,4.07
2017-09-20T14:14:35.318Z,10.47
2017-09-20T14:17:01.624Z,11.60
2017-09-20T14:19:27.870Z,5.73
2017-09-20T14:21:54.106Z,6.80
2017-09-20T14:24:20.330Z,12.07
2017-09-20T14:26:46.588Z,6.63
2017-09-20T14:29:13.551Z,5.80
2017-09-20T14:31:40.559Z,6.00
2017-09-20T14:34:06.856Z,3.50
2017-09-20T14:36:33.103Z,7.23
2017-09-20T14:38:59.337Z,6.67
2017-09-20T14:41:25.874Z,14.07
2017-09-20T14:43:52.123Z,6.20
2017-09-20T14:46:18.354Z,7.77
2017-09-20T14:48:44.630Z,6.57
2017-09-20T14:51:10.866Z,5.20
2017-09-20T14:53:37.090Z,5.00
2017-09-20T14:56:03.350Z,8.13
2017-09-20T14:58:30.522Z,4.67
2017-09-20T15:00:58.114Z,5.73
2017-09-20T15:03:24.763Z,5.10
2017-09-20T15:05:51.762Z,6.53
2017-09-20T15:08:18.018Z,6.37
2017-09-20T15:10:47.074Z,9.30
2017-09-20T15:13:13.325Z,4.57
2017-09-20T15:15:41.578Z,6.93
2017-09-20T15:18:07.866Z,5.90
2017-09-20T15:20:34.859Z,5.27
2017-09-20T15:23:01.749Z,6.00
2017-09-20T15:25:28.355Z,9.00
2017-09-20T15:27:54.659Z,19.10
2017-09-20T15:30:21.899Z,11.73
2017-09-20T15:32:49.269Z,8.50
2017-09-20T15:35:15.912Z,5.00
2017-09-20T15:37:42.150Z,12.20
2017-09-20T15:40:08.779Z,6.23
2017-09-20T15:42:35.431Z,10.50
2017-09-20T15:45:02.070Z,8.73
2017-09-20T15:47:28.322Z,9.20
2017-09-20T15:49:54.751Z,9.80
2017-09-20T15:52:21.252Z,7.07
2017-09-20T15:54:47.555Z,9.23
2017-09-20T15:57:14.311Z,5.73
2017-09-20T15:59:40.886Z,6.33
2017-09-20T16:02:07.442Z,12.60
2017-09-20T16:04:33.851Z,7.80
2017-09-20T16:07:00.826Z,7.93
2017-09-20T16:09:27.093Z,9.97
2017-09-20T16:11:53.374Z,7.10
2017-09-20T16:14:19.615Z,12.03
2017-09-20T16:16:46.895Z,8.93
2017-09-20T16:19:13.126Z,10.33
2017-09-20T16:21:39.493Z,10.97
2017-09-20T16:24:06.290Z,16.73
2017-09-20T16:26:33.338Z,11.83
2017-09-20T16:28:59.571Z,5.63
2017-09-20T16:31:26.168Z,10.30
2017-09-20T16:33:53.354Z,6.17
2017-09-20T16:36:20.525Z,12.40
2017-09-20T16:38:47.935Z,11.50
2017-09-20T16:41:14.324Z,8.07
2017-09-20T16:43:41.276Z,17.20
2017-09-20T16:46:08.551Z,8.60
2017-09-20T16:48:34.948Z,11.17
2017-09-20T16:51:01.478Z,14.50
2017-09-20T16:53:28.549Z,12.27
2017-09-20T16:55:55.776Z,9.43
2017-09-20T16:58:22.010Z,9.97
2017-09-20T17:00:48.252Z,29.60
2017-09-20T17:03:15.002Z,14.10
2017-09-20T17:05:41.594Z,7.90
2017-09-20T17:08:08.626Z,12.83
2017-09-20T17:10:34.878Z,12.83
2017-09-20T17:13:01.162Z,11.27
2017-09-20T17:15:28.244Z,10.63
2017-09-20T17:17:54.558Z,11.70
2017-09-20T17:20:20.810Z,10.97
2017-09-20T17:22:47.173Z,7.63
2017-09-20T17:25:13.630Z,7.80
2017-09-20T17:27:39.870Z,15.70
2017-09-20T17:30:06.144Z,12.27
2017-09-20T17:32:33.595Z,9.10
2017-09-20T17:35:07.731Z,19.90
2017-09-20T17:37:34.735Z,44.43
2017-09-20T17:40:01.137Z,15.47
2017-09-20T17:42:28.242Z,14.47
2017-09-20T17:44:55.051Z,13.97
2017-09-20T17:47:35.395Z,9.00
2017-09-20T17:50:02.732Z,7.03
2017-09-20T17:58:21.678Z,9.27
2017-09-20T18:00:47.918Z,11.93
2017-09-20T18:03:14.495Z,13.10
2017-09-20T18:05:41.023Z,13.63
2017-09-20T18:08:07.283Z,15.03
2017-09-20T18:10:34.402Z,12.50
2017-09-20T18:13:01.762Z,14.77
2017-09-20T18:15:28.791Z,14.03
2017-09-20T18:17:55.043Z,16.63
2017-09-20T18:20:24.523Z,10.73
2017-09-20T18:22:52.319Z,18.93
2017-09-20T18:25:30.144Z,79.17
2017-09-20T18:27:58.767Z,39.17
2017-09-20T18:30:29.548Z,19.83
2017-09-20T18:33:03.299Z,15.83
2017-09-20T18:35:42.485Z,9.87
2017-09-20T18:38:08.862Z,9.17
2017-09-20T18:40:35.200Z,17.13
2017-09-20T18:43:01.554Z,16.30
2017-09-20T18:45:38.431Z,10.93
2017-09-20T18:48:05.959Z,10.43
2017-09-20T18:50:49.939Z,16.63
2017-09-20T18:53:25.107Z,17.53
2017-09-20T18:55:58.819Z,11.23
2017-09-20T18:58:25.935Z,19.00
2017-09-20T19:00:56.409Z,14.27
2017-09-20T19:03:23.488Z,26.37
2017-09-20T19:05:49.734Z,16.70
2017-09-20T19:08:23.031Z,15.20
2017-09-20T19:10:54.355Z,13.13
2017-09-20T19:13:20.691Z,54.53
2017-09-20T19:16:02.986Z,33.03
2017-09-20T19:21:36.936Z,18.87
2017-09-20T19:24:10.027Z,24.57
2017-09-20T19:26:52.006Z,18.03
2017-09-20T19:29:22.153Z,25.40
2017-09-20T19:31:50.542Z,18.70
2017-09-20T19:34:17.666Z,17.27
2017-09-20T19:37:09.699Z,28.93
2017-09-20T19:39:41.418Z,18.17
2017-09-20T19:42:19.061Z,15.73
2017-09-20T19:44:49.852Z,18.43
2017-09-20T19:47:19.327Z,20.23
2017-09-20T19:49:55.755Z,25.40
2017-09-20T19:52:24.206Z,26.67
2017-09-20T19:54:50.524Z,19.80
2017-09-20T19:57:17.917Z,17.33
2017-09-20T19:59:44.259Z,18.33
2017-09-20T20:02:10.594Z,21.77
2017-09-20T20:04:36.886Z,21.10
2017-09-20T20:07:04.073Z,20.73
2017-09-20T20:12:22.581Z,31.93
2017-09-20T20:14:49.664Z,28.77
2017-09-20T20:17:15.941Z,17.50
2017-09-20T20:19:42.214Z,22.77
2017-09-20T20:22:09.248Z,20.17
2017-09-20T20:24:36.222Z,20.83
2017-09-20T20:27:02.510Z,23.60
2017-09-20T20:29:28.786Z,17.23
2017-09-20T20:31:55.018Z,23.60
2017-09-20T20:34:21.266Z,21.63
2017-09-20T20:36:47.550Z,20.37
2017-09-20T20:39:13.791Z,18.23
2017-09-20T20:41:45.638Z,14.93
2017-09-20T20:44:11.902Z,16.40
2017-09-20T20:46:38.152Z,16.73
2017-09-20T20:49:05.874Z,20.03
2017-09-20T20:51:39.290Z,24.60
2017-09-20T20:54:06.275Z,20.73
2017-09-20T20:56:32.842Z,16.67
2017-09-20T20:58:59.280Z,20.80
2017-09-20T21:01:25.547Z,17.07
2017-09-20T21:03:52.910Z,17.53
2017-09-20T21:06:19.251Z,22.97
2017-09-20T21:08:45.476Z,18.63
2017-09-20T21:11:12.703Z,19.30
2017-09-20T21:13:40.494Z,21.07
2017-09-20T21:16:07.055Z,17.23
2017-09-20T21:18:33.310Z,18.20
2017-09-20T21:20:59.586Z,19.53
2017-09-20T21:23:26.196Z,18.70
2017-09-20T21:25:52.668Z,18.63
2017-09-20T21:28:19.823Z,18.07
2017-09-20T21:30:46.819Z,20.40
2017-09-20T21:33:13.067Z,20.60
2017-09-20T21:35:39.524Z,26.30
2017-09-20T21:38:06.619Z,20.10
2017-09-20T21:40:32.863Z,16.93
2017-09-20T21:42:59.162Z,26.80
2017-09-20T21:45:25.449Z,22.13
2017-09-20T21:47:52.207Z,18.47
2017-09-20T21:50:18.760Z,21.60
2017-09-20T21:52:45.734Z,16.33
2017-09-20T21:55:11.970Z,17.87
2017-09-20T21:57:38.679Z,18.00
2017-09-20T22:00:05.002Z,17.10
2017-09-20T22:02:32.749Z,17.97
2017-09-20T22:04:59.310Z,20.03
2017-09-20T22:07:26.286Z,18.57
2017-09-20T22:09:52.765Z,21.53
2017-09-20T22:12:19.333Z,18.37
2017-09-20T22:14:46.529Z,18.30
2017-09-20T22:17:25.554Z,21.87
2017-09-20T22:20:04.030Z,19.03
2017-09-20T22:22:43.234Z,21.20
2017-09-20T22:25:21.830Z,23.57
2017-09-20T22:27:48.075Z,22.47
2017-09-20T22:30:14.318Z,22.10
2017-09-20T22:32:40.554Z,27.27
2017-09-20T22:35:06.814Z,23.20
2017-09-20T22:37:33.793Z,25.33
2017-09-20T22:40:00.035Z,24.50
2017-09-20T22:42:26.310Z,21.80
2017-09-20T22:44:52.550Z,32.57
2017-09-20T22:47:19.543Z,22.00
2017-09-20T22:49:45.834Z,25.10
2017-09-20T22:52:12.374Z,23.07
2017-09-20T22:54:39.349Z,22.67
2017-09-20T22:57:05.616Z,27.63
2017-09-20T22:59:31.909Z,24.27
2017-09-20T23:01:58.158Z,26.93
2017-09-20T23:04:24.415Z,25.10
2017-09-20T23:06:50.662Z,22.77
2017-09-20T23:09:16.917Z,22.63
2017-09-20T23:11:43.915Z,19.90
2017-09-20T23:14:10.198Z,21.67
2017-09-20T23:16:37.171Z,23.40
2017-09-20T23:19:03.497Z,24.90
2017-09-20T23:21:30.466Z,22.00
2017-09-20T23:23:56.708Z,21.40
2017-09-20T23:26:22.983Z,28.30
2017-09-20T23:28:49.976Z,19.63
2017-09-20T23:31:16.208Z,20.50
2017-09-20T23:33:42.455Z,21.77
2017-09-20T23:36:08.682Z,27.27
2017-09-20T23:38:34.911Z,21.67
2017-09-20T23:43:33.986Z,23.73
2017-09-20T23:46:00.988Z,27.10
2017-09-20T23:48:27.223Z,22.50
2017-09-20T23:50:53.455Z,27.47
2017-09-20T23:53:20.010Z,25.00
2017-09-20T23:55:46.269Z,25.00
